Time;durP1;ratioP1;P1;durP2;ratioP2;P2;SDS_P1;SDS_P2;PMS_P1;PMS_P2;Temp;Humidity;BMP_temperature;BMP_pressure;BME280_temperature;BME280_humidity;BME280_pressure;Samples;Min_cycle;Max_cycle;Signal;HPM_P1;HPM_P2
2022/04/21 00:01:33;;;;;;;7.10;5.60;;;6.20;99.90;;;;;;5094254;28;20659;-63
2022/04/21 00:03:58;;;;;;;6.70;6.03;;;6.20;99.90;;;;;;5094711;28;20671;-64
2022/04/21 00:06:24;;;;;;;5.43;5.03;;;6.20;99.90;;;;;;5094666;28;20403;-60
2022/04/21 00:08:50;;;;;;;5.70;4.93;;;6.20;99.90;;;;;;5093626;28;20351;-63
2022/04/21 00:11:16;;;;;;;5.53;4.87;;;6.20;99.90;;;;;;5094425;28;20170;-60
2022/04/21 00:13:42;;;;;;;5.40;4.77;;;6.20;99.90;;;;;;5094685;28;20435;-60
2022/04/21 00:16:08;;;;;;;5.07;4.27;;;6.20;99.90;;;;;;5094551;28;20460;-63
2022/04/21 00:18:33;;;;;;;6.30;5.00;;;6.20;99.90;;;;;;5093058;28;20282;-60
2022/04/21 00:21:01;;;;;;;5.73;4.80;;;6.20;99.90;;;;;;5092930;28;20597;-60
2022/04/21 00:23:27;;;;;;;4.63;4.23;;;6.20;99.90;;;;;;5094227;28;20670;-63
2022/04/21 00:25:54;;;;;;;5.60;5.10;;;6.10;99.90;;;;;;5094398;28;20395;-60
2022/04/21 00:28:20;;;;;;;4.50;4.10;;;6.10;99.90;;;;;;5094371;28;20412;-60
2022/04/21 00:30:46;;;;;;;5.43;4.93;;;6.10;99.90;;;;;;5092121;28;20925;-60
2022/04/21 00:33:11;;;;;;;5.93;4.70;;;6.00;99.90;;;;;;5094148;28;20423;-64
2022/04/21 00:35:37;;;;;;;4.67;4.27;;;6.00;99.90;;;;;;5094052;28;20173;-61
2022/04/21 00:38:03;;;;;;;4.90;4.50;;;6.00;99.90;;;;;;5093920;28;20647;-59
2022/04/21 00:40:30;;;;;;;6.30;4.80;;;6.00;99.90;;;;;;5093205;28;20223;-63
2022/04/21 00:42:56;;;;;;;6.00;4.93;;;6.00;99.90;;;;;;5094028;28;20196;-64
2022/04/21 00:45:22;;;;;;;5.77;4.90;;;6.00;99.90;;;;;;5093902;28;20905;-61
2022/04/21 00:47:50;;;;;;;4.87;4.47;;;6.00;99.90;;;;;;5092687;28;20416;-63
2022/04/21 00:50:33;;;;;;;4.50;4.20;;;6.00;99.90;;;;;;5092162;28;20403;-62
2022/04/21 00:53:01;;;;;;;4.13;3.83;;;5.90;99.90;;;;;;5092663;28;20790;-60
2022/04/21 00:55:27;;;;;;;5.20;4.77;;;5.90;99.90;;;;;;5093696;28;20410;-63
2022/04/21 00:57:54;;;;;;;4.97;4.67;;;5.90;99.90;;;;;;5093137;28;20967;-62
2022/04/21 01:00:20;;;;;;;5.40;4.83;;;5.90;99.90;;;;;;5092809;28;20428;-60
2022/04/21 01:02:46;;;;;;;4.90;4.40;;;5.90;99.90;;;;;;5093603;28;20507;-60
2022/04/21 01:05:33;;;;;;;6.73;4.73;;;5.80;99.90;;;;;;5093542;28;20463;-60
2022/04/21 01:08:01;;;;;;;6.80;5.23;;;5.80;99.90;;;;;;5093926;28;20173;-63
2022/04/21 01:10:29;;;;;;;4.00;3.70;;;5.80;99.90;;;;;;5092761;28;20400;-60
2022/04/21 01:12:55;;;;;;;5.03;4.50;;;5.80;99.90;;;;;;5092168;28;20434;-60
2022/04/21 01:15:21;;;;;;;4.97;4.57;;;5.70;99.90;;;;;;5093019;28;20399;-61
2022/04/21 01:17:47;;;;;;;4.93;4.53;;;5.70;99.90;;;;;;5093301;28;20474;-63
2022/04/21 01:20:20;;;;;;;5.13;4.63;;;5.70;99.90;;;;;;5091297;28;20400;-63
2022/04/21 01:22:46;;;;;;;4.73;4.33;;;5.60;99.90;;;;;;5093373;28;20563;-63
2022/04/21 01:25:12;;;;;;;5.20;4.73;;;5.60;99.90;;;;;;5093436;28;20396;-60
2022/04/21 01:27:39;;;;;;;6.60;5.53;;;5.50;99.90;;;;;;5093449;28;20212;-64
2022/04/21 01:30:08;;;;;;;4.73;4.33;;;5.50;99.90;;;;;;5092380;28;20410;-63
2022/04/21 01:32:35;;;;;;;4.97;4.20;;;5.50;99.90;;;;;;5092908;28;20419;-60
2022/04/21 01:35:06;;;;;;;5.50;5.10;;;5.50;99.90;;;;;;5093422;28;20938;-63
2022/04/21 01:43:01;;;;;;;5.80;5.20;;;5.30;99.90;;;;;;5093467;28;20414;-60
2022/04/21 01:45:27;;;;;;;4.00;3.67;;;5.30;99.90;;;;;;5092293;28;20498;-63
2022/04/21 01:47:54;;;;;;;4.70;4.07;;;5.20;99.90;;;;;;5092678;28;20176;-63
2022/04/21 01:50:19;;;;;;;5.23;4.73;;;5.20;99.90;;;;;;5092393;28;20173;-59
2022/04/21 01:52:45;;;;;;;6.60;4.43;;;5.20;99.90;;;;;;5093119;28;20560;-61
2022/04/21 01:55:11;;;;;;;5.20;4.37;;;5.20;99.90;;;;;;5093241;28;20177;-60
2022/04/21 01:57:37;;;;;;;5.00;4.40;;;5.10;99.90;;;;;;5091757;28;20205;-60
2022/04/21 02:00:04;;;;;;;5.90;4.70;;;5.10;99.90;;;;;;5092162;28;20392;-60
2022/04/21 02:02:30;;;;;;;5.50;4.90;;;5.00;99.90;;;;;;5094947;28;20238;-63
2022/04/21 02:04:56;;;;;;;4.80;4.33;;;5.00;99.90;;;;;;5096668;28;20976;-60
2022/04/21 02:07:22;;;;;;;7.00;4.10;;;5.00;99.90;;;;;;5096967;28;20396;-62
2022/04/21 02:09:48;;;;;;;5.37;4.77;;;4.90;99.90;;;;;;5096050;28;20914;-64
2022/04/21 02:12:14;;;;;;;5.37;4.70;;;5.00;99.90;;;;;;5096761;28;20495;-60
2022/04/21 02:14:40;;;;;;;4.20;3.80;;;4.90;99.90;;;;;;5097008;28;20259;-60
2022/04/21 02:17:06;;;;;;;6.27;4.80;;;4.90;99.90;;;;;;5096706;28;20451;-63
2022/04/21 02:19:32;;;;;;;5.60;5.10;;;4.80;99.90;;;;;;5096011;28;20168;-63
2022/04/21 02:21:58;;;;;;;5.97;5.43;;;4.80;99.90;;;;;;5096082;28;20422;-65
2022/04/21 02:24:24;;;;;;;4.87;4.37;;;4.80;99.90;;;;;;5096538;28;20790;-64
2022/04/21 02:26:50;;;;;;;4.60;4.30;;;4.80;99.90;;;;;;5096878;28;20182;-63
2022/04/21 02:29:15;;;;;;;8.87;4.77;;;4.80;99.90;;;;;;5095800;28;20959;-59
2022/04/21 02:31:41;;;;;;;10.50;4.70;;;4.80;99.90;;;;;;5095262;28;20537;-60
2022/04/21 02:34:06;;;;;;;8.27;5.23;;;4.80;99.90;;;;;;5096306;28;20168;-60
2022/04/21 02:36:32;;;;;;;6.00;4.90;;;4.70;99.90;;;;;;5095456;28;20575;-60
2022/04/21 02:38:58;;;;;;;6.70;5.33;;;4.70;99.90;;;;;;5095243;28;20243;-63
2022/04/21 02:41:23;;;;;;;6.23;4.70;;;4.70;99.90;;;;;;5095241;28;20172;-59
2022/04/21 02:43:49;;;;;;;5.17;4.70;;;4.70;99.90;;;;;;5096381;28;20165;-63
2022/04/21 02:46:14;;;;;;;4.57;4.17;;;4.70;99.90;;;;;;5096221;28;20635;-63
2022/04/21 02:48:40;;;;;;;11.03;5.23;;;4.70;99.90;;;;;;5094441;28;20264;-60
2022/04/21 02:51:08;;;;;;;6.93;5.23;;;4.60;99.90;;;;;;5096236;28;20172;-62
2022/04/21 02:59:02;;;;;;;9.90;5.10;;;4.60;99.90;;;;;;5094860;28;20504;-62
2022/04/21 03:01:28;;;;;;;9.47;5.10;;;4.50;99.90;;;;;;5094807;28;20414;-63
2022/04/21 03:03:54;;;;;;;7.40;5.00;;;4.50;99.90;;;;;;5094844;28;20165;-60
2022/04/21 03:06:20;;;;;;;7.03;4.40;;;4.50;99.90;;;;;;5095727;28;20178;-60
2022/04/21 03:08:46;;;;;;;5.70;4.97;;;4.50;99.90;;;;;;5094934;28;20547;-59
2022/04/21 03:11:11;;;;;;;5.93;5.33;;;4.40;99.90;;;;;;5095888;28;20774;-60
2022/04/21 03:13:37;;;;;;;4.50;4.13;;;4.40;99.90;;;;;;5094409;28;20674;-60
2022/04/21 03:16:03;;;;;;;6.27;4.63;;;4.30;99.90;;;;;;5095245;28;20261;-63
2022/04/21 03:18:28;;;;;;;5.57;5.07;;;4.30;99.90;;;;;;5094953;28;20204;-68
2022/04/21 03:26:22;;;;;;;6.30;4.90;;;4.20;99.90;;;;;;5095442;28;20407;-59
2022/04/21 03:28:48;;;;;;;12.23;5.17;;;4.20;99.90;;;;;;5094498;28;20406;-62
2022/04/21 03:31:13;;;;;;;8.87;4.83;;;4.00;99.90;;;;;;5093793;28;20196;-63
2022/04/21 03:33:39;;;;;;;5.27;4.83;;;4.00;99.90;;;;;;5095300;28;20169;-60
2022/04/21 03:36:05;;;;;;;12.07;6.30;;;3.90;99.90;;;;;;5095504;28;20626;-60
2022/04/21 03:38:30;;;;;;;7.93;5.80;;;3.90;99.90;;;;;;5094341;28;20208;-68
2022/04/21 03:40:56;;;;;;;7.67;6.17;;;3.90;99.90;;;;;;5095303;28;20653;-60
2022/04/21 03:43:22;;;;;;;6.53;5.83;;;3.90;99.90;;;;;;5095072;28;20179;-60
2022/04/21 03:45:48;;;;;;;6.90;5.57;;;3.90;99.90;;;;;;5095353;28;20409;-60
2022/04/21 03:48:13;;;;;;;7.87;6.33;;;3.90;99.90;;;;;;5095198;28;20220;-62
2022/04/21 03:50:39;;;;;;;6.57;5.10;;;3.90;99.90;;;;;;5093644;28;20205;-63
2022/04/21 03:53:05;;;;;;;6.63;5.70;;;4.00;99.90;;;;;;5094954;28;20210;-64
2022/04/21 03:55:31;;;;;;;8.37;6.67;;;4.00;99.90;;;;;;5094946;28;20443;-63
2022/04/21 03:57:57;;;;;;;6.57;5.97;;;4.00;99.90;;;;;;5094826;28;20481;-62
2022/04/21 04:00:23;;;;;;;6.20;5.63;;;4.10;99.90;;;;;;5093917;28;20395;-60
2022/04/21 04:02:48;;;;;;;9.33;5.83;;;4.10;99.90;;;;;;5094653;28;20181;-61
2022/04/21 04:05:14;;;;;;;6.20;5.60;;;4.20;99.90;;;;;;5094658;28;20177;-60
2022/04/21 04:13:11;;;;;;;7.83;5.90;;;4.20;99.90;;;;;;5094371;28;20480;-60
2022/04/21 04:15:37;;;;;;;7.90;6.13;;;4.20;99.90;;;;;;5094487;28;20436;-63
2022/04/21 04:18:02;;;;;;;6.47;5.07;;;4.20;99.90;;;;;;5094426;28;20551;-60
2022/04/21 04:20:28;;;;;;;6.70;6.00;;;4.20;99.90;;;;;;5093567;28;20169;-62
2022/04/21 04:22:54;;;;;;;9.83;6.40;;;4.20;99.90;;;;;;5094196;28;20650;-63
2022/04/21 04:25:19;;;;;;;6.20;5.60;;;4.20;99.90;;;;;;5094054;28;20520;-63
2022/04/21 04:27:45;;;;;;;8.70;6.03;;;4.20;99.90;;;;;;5093916;28;20173;-60
2022/04/21 04:30:11;;;;;;;7.30;5.87;;;4.20;99.90;;;;;;5093294;28;20171;-60
2022/04/21 04:32:36;;;;;;;10.33;6.17;;;4.20;99.90;;;;;;5094240;28;20564;-60
2022/04/21 04:35:03;;;;;;;8.47;6.40;;;4.20;99.90;;;;;;5094233;28;20168;-63
2022/04/21 04:37:28;;;;;;;5.87;5.20;;;4.20;99.90;;;;;;5094150;28;20192;-60
2022/04/21 04:39:55;;;;;;;11.47;6.50;;;4.20;99.90;;;;;;5093431;28;20406;-59
2022/04/21 04:42:22;;;;;;;11.30;6.47;;;4.20;99.90;;;;;;5094112;28;20180;-60
2022/04/21 04:46:34;;;;;;;6.10;5.43;;;4.20;99.90;;;;;;5094272;28;20449;-59
2022/04/21 04:47:36;;;;;;;8.27;6.50;;;4.30;99.90;;;;;;5093406;28;20444;-64
2022/04/21 04:50:02;;;;;;;8.83;7.20;;;4.30;99.90;;;;;;5092806;28;20406;-60
2022/04/21 04:52:28;;;;;;;12.97;6.73;;;4.40;99.90;;;;;;5093932;28;20429;-63
2022/04/21 04:54:53;;;;;;;12.40;6.77;;;4.40;99.90;;;;;;5093895;28;20402;-60
2022/04/21 04:57:19;;;;;;;8.20;6.17;;;4.50;99.90;;;;;;5093675;28;20548;-61
2022/04/21 04:59:44;;;;;;;11.70;6.70;;;4.40;99.90;;;;;;5092918;28;20165;-63
2022/04/21 05:02:10;;;;;;;7.10;5.73;;;4.40;99.90;;;;;;5093676;28;20540;-63
2022/04/21 05:04:36;;;;;;;6.80;5.53;;;4.50;99.90;;;;;;5093221;28;20216;-60
2022/04/21 05:07:02;;;;;;;7.63;6.60;;;4.50;99.90;;;;;;5093722;28;20561;-62
2022/04/21 05:09:28;;;;;;;10.23;7.00;;;4.50;1.00;;;;;;5092639;28;20408;-63
2022/04/21 05:11:58;;;;;;;6.73;6.00;;;4.60;1.00;;;;;;5093587;28;20481;-63
2022/04/21 05:14:24;;;;;;;7.73;6.97;;;4.70;1.00;;;;;;5093618;28;20628;-59
2022/04/21 05:16:51;;;;;;;6.90;6.20;;;4.80;1.00;;;;;;5093546;28;20391;-60
2022/04/21 05:19:19;;;;;;;7.67;6.40;;;4.80;1.00;;;;;;5092538;28;20485;-64
2022/04/21 05:21:46;;;;;;;7.20;6.50;;;4.90;1.00;;;;;;5093216;28;20898;-60
2022/04/21 05:24:13;;;;;;;8.47;7.00;;;5.00;1.00;;;;;;5092850;28;20849;-60
2022/04/21 05:26:40;;;;;;;8.37;7.23;;;5.10;1.00;;;;;;5093345;28;20387;-60
2022/04/21 05:31:59;;;;;;;11.47;8.70;;;5.30;1.00;;;;;;5093378;28;20426;-65
2022/04/21 05:34:26;;;;;;;9.33;8.17;;;5.40;1.00;;;;;;5093296;28;20903;-62
2022/04/21 05:36:52;;;;;;;7.50;6.53;;;5.50;1.00;;;;;;5094189;28;20398;-63
2022/04/21 05:39:19;;;;;;;11.00;6.67;;;5.60;1.00;;;;;;5096187;28;21117;-63
2022/04/21 05:41:45;;;;;;;8.63;5.75;;;5.70;1.00;;;;;;5096797;28;20404;-66
2022/04/21 05:44:11;;;;;;;7.90;6.47;;;5.90;1.00;;;;;;5097525;28;20166;-62
2022/04/21 05:46:37;;;;;;;6.20;5.40;;;6.00;1.00;;;;;;5097750;28;20387;-65
2022/04/21 05:49:04;;;;;;;11.43;6.80;;;6.10;1.00;;;;;;5096551;28;20448;-66
2022/04/21 05:51:30;;;;;;;9.10;7.13;;;6.30;1.00;;;;;;5097311;28;20445;-66
2022/04/21 05:53:58;;;;;;;9.90;7.30;;;6.50;1.00;;;;;;5097341;28;20392;-62
2022/04/21 05:56:24;;;;;;;8.60;7.10;;;6.70;1.00;;;;;;5096886;28;20400;-62
2022/04/21 05:58:51;;;;;;;9.50;7.40;;;6.90;1.00;;;;;;5096255;28;20551;-66
2022/04/21 06:01:16;;;;;;;8.20;6.93;;;7.10;1.00;;;;;;5097044;28;20395;-66
2022/04/21 06:03:42;;;;;;;13.63;7.97;;;7.20;1.00;;;;;;5097065;28;20405;-62
2022/04/21 06:06:09;;;;;;;10.63;6.77;;;7.40;1.00;;;;;;5097000;28;20272;-61
2022/04/21 06:08:36;;;;;;;14.20;8.90;;;7.50;1.00;;;;;;5096273;28;20197;-67
2022/04/21 06:11:02;;;;;;;10.03;8.83;;;7.50;1.00;;;;;;5097017;28;20461;-64
2022/04/21 06:13:30;;;;;;;14.83;8.23;;;7.60;1.00;;;;;;5096492;28;20419;-66
2022/04/21 06:15:56;;;;;;;10.60;8.83;;;7.70;1.00;;;;;;5096657;28;20411;-67
2022/04/21 06:18:23;;;;;;;13.20;8.67;;;7.80;1.00;;;;;;5097005;28;20458;-64
2022/04/21 06:20:53;;;;;;;10.57;8.37;;;7.90;1.00;;;;;;5096041;28;20397;-63
2022/04/21 06:23:19;;;;;;;14.50;8.17;;;7.90;1.00;;;;;;5096674;28;20508;-62
2022/04/21 06:25:45;;;;;;;9.97;7.87;;;8.00;1.00;;;;;;5096597;28;20405;-65
2022/04/21 06:28:11;;;;;;;10.60;8.37;;;8.10;1.00;;;;;;5096375;28;20420;-63
2022/04/21 06:30:37;;;;;;;13.93;9.60;;;8.30;1.00;;;;;;5095557;28;20176;-64
2022/04/21 06:33:03;;;;;;;12.30;9.30;;;8.30;1.00;;;;;;5096134;28;20789;-63
2022/04/21 06:35:29;;;;;;;13.60;8.00;;;8.50;1.00;;;;;;5096532;28;20407;-63
2022/04/21 06:37:55;;;;;;;11.20;7.80;;;8.60;1.00;;;;;;5096532;28;20703;-67
2022/04/21 06:40:22;;;;;;;9.80;7.17;;;8.70;1.00;;;;;;5095424;28;20397;-63
2022/04/21 06:42:48;;;;;;;12.07;6.63;;;8.80;1.00;;;;;;5096279;28;20819;-62
2022/04/21 06:48:13;;;;;;;9.83;6.13;;;9.00;1.00;;;;;;5072868;28;20179;-67
2022/04/21 06:50:39;;;;;;;6.90;6.03;;;9.10;1.00;;;;;;5094884;28;20395;-63
2022/04/21 06:53:08;;;;;;;6.23;5.63;;;9.20;1.00;;;;;;5096103;28;20436;-67
2022/04/21 06:55:34;;;;;;;5.80;5.20;;;9.30;1.00;;;;;;5096079;28;20400;-64
2022/04/21 06:58:01;;;;;;;5.37;4.80;;;9.40;1.00;;;;;;5096006;28;20468;-64
2022/04/21 07:00:27;;;;;;;5.17;4.73;;;9.50;1.00;;;;;;5094981;28;20377;-67
2022/04/21 07:02:57;;;;;;;6.27;4.73;;;9.60;1.00;;;;;;5095920;28;20909;-67
2022/04/21 07:05:24;;;;;;;5.23;4.73;;;9.70;1.00;;;;;;5095309;28;20790;-66
2022/04/21 07:07:50;;;;;;;4.50;4.10;;;9.70;1.00;;;;;;5095336;28;20406;-68
2022/04/21 07:10:18;;;;;;;7.07;5.37;;;9.80;1.00;;;;;;5094668;28;20378;-68
2022/04/21 07:12:44;;;;;;;8.27;4.87;;;9.90;1.00;;;;;;5095691;28;20446;-67
2022/04/21 07:15:10;;;;;;;5.13;4.10;;;9.90;99.90;;;;;;5096242;28;20899;-67
2022/04/21 07:17:37;;;;;;;4.37;4.03;;;10.00;99.90;;;;;;5095690;28;20449;-66
2022/04/21 07:20:04;;;;;;;4.77;4.47;;;10.10;99.90;;;;;;5094647;28;20400;-64
2022/04/21 07:22:31;;;;;;;5.23;4.47;;;10.10;99.90;;;;;;5095364;28;20437;-65
2022/04/21 07:24:58;;;;;;;4.13;3.73;;;10.10;99.90;;;;;;5095169;28;20415;-65
2022/04/21 07:27:24;;;;;;;4.00;3.70;;;10.10;99.90;;;;;;5095023;28;20461;-66
2022/04/21 07:29:50;;;;;;;3.87;3.47;;;10.20;99.90;;;;;;5094548;28;20439;-67
2022/04/21 07:32:17;;;;;;;3.77;3.47;;;10.20;99.90;;;;;;5095081;28;20922;-66
2022/04/21 07:34:42;;;;;;;8.57;3.30;;;10.30;99.90;;;;;;5095313;28;20457;-65
2022/04/21 07:37:09;;;;;;;4.27;3.87;;;10.40;99.90;;;;;;5095443;28;20371;-64
2022/04/21 07:39:35;;;;;;;3.93;3.03;;;10.50;99.90;;;;;;5094564;28;20169;-67
2022/04/21 07:42:02;;;;;;;3.40;3.10;;;10.60;99.90;;;;;;5095297;28;20444;-67
2022/04/21 07:44:27;;;;;;;3.93;3.63;;;10.80;99.90;;;;;;5094536;28;20894;-65
2022/04/21 07:46:54;;;;;;;3.43;3.23;;;10.90;99.90;;;;;;5095178;28;20406;-68
2022/04/21 07:54:48;;;;;;;3.30;3.00;;;11.00;99.90;;;;;;5094826;28;20398;-67
2022/04/21 07:57:14;;;;;;;3.50;3.30;;;11.10;99.90;;;;;;5093944;28;20863;-67
2022/04/21 07:59:39;;;;;;;5.73;3.77;;;11.30;99.90;;;;;;5093556;28;20694;-66
2022/04/21 08:02:08;;;;;;;2.87;2.67;;;11.30;99.90;;;;;;5094868;28;20201;-66
2022/04/21 08:04:34;;;;;;;4.73;4.33;;;11.40;99.90;;;;;;5094062;28;20181;-68
2022/04/21 08:07:00;;;;;;;3.90;3.60;;;11.50;99.90;;;;;;5094857;28;20393;-64
2022/04/21 08:09:26;;;;;;;4.90;3.17;;;11.50;99.90;;;;;;5093979;28;20800;-63
2022/04/21 08:11:51;;;;;;;3.60;3.30;;;11.50;99.90;;;;;;5093313;28;20435;-64
2022/04/21 08:14:17;;;;;;;4.10;3.10;;;11.50;99.90;;;;;;5094745;28;20197;-67
2022/04/21 08:16:43;;;;;;;3.33;3.00;;;11.50;99.90;;;;;;5094534;28;20204;-64
2022/04/21 08:19:13;;;;;;;3.10;2.90;;;11.60;99.90;;;;;;5093492;28;20425;-66
2022/04/21 08:21:38;;;;;;;5.10;3.23;;;11.60;99.90;;;;;;5094216;28;20884;-64
2022/04/21 08:32:34;;;;;;;2.80;2.60;;;12.10;99.90;;;;;;5094207;28;20468;-64
2022/04/21 08:35:03;;;;;;;3.60;2.73;;;12.10;99.90;;;;;;5094052;28;20381;-67
2022/04/21 08:37:33;;;;;;;4.70;3.10;;;12.10;99.90;;;;;;5092740;28;20426;-64
2022/04/21 08:40:00;;;;;;;3.17;2.93;;;12.20;99.90;;;;;;5092852;28;20374;-66
2022/04/21 08:42:29;;;;;;;5.23;3.57;;;12.40;99.90;;;;;;5094035;28;20427;-64
2022/04/21 08:44:58;;;;;;;3.20;2.90;;;12.60;99.90;;;;;;5094092;28;20367;-67
2022/04/21 08:47:27;;;;;;;3.50;3.23;;;12.80;99.90;;;;;;5094078;28;20411;-67
2022/04/21 08:50:05;;;;;;;4.10;3.70;;;13.00;99.90;;;;;;5093159;28;20450;-66
2022/04/21 08:52:32;;;;;;;7.30;6.03;;;13.30;99.90;;;;;;5093903;28;20398;-64
2022/04/21 08:54:58;;;;;;;3.40;2.80;;;13.20;99.90;;;;;;5093932;28;20390;-67
2022/04/21 08:57:24;;;;;;;3.40;3.10;;;13.40;99.90;;;;;;5093748;28;20454;-64
2022/04/21 08:59:49;;;;;;;4.30;3.20;;;13.60;99.90;;;;;;5092455;28;20174;-65
2022/04/21 09:02:15;;;;;;;3.17;2.97;;;13.60;99.90;;;;;;5094024;28;20651;-67
2022/04/21 09:04:43;;;;;;;4.30;3.47;;;13.60;99.90;;;;;;5092662;28;20189;-64
2022/04/21 09:07:20;;;;;;;5.90;2.77;;;13.60;99.90;;;;;;5093693;28;20244;-65
2022/04/21 09:10:07;;;;;;;3.27;3.00;;;13.60;99.90;;;;;;5091213;28;20434;-68
2022/04/21 09:12:35;;;;;;;2.80;2.60;;;13.60;99.90;;;;;;5092575;28;20477;-65
2022/04/21 09:15:17;;;;;;;2.67;2.30;;;13.70;99.90;;;;;;5093641;28;20396;-65
2022/04/21 09:17:51;;;;;;;3.30;2.60;;;13.80;99.90;;;;;;5093250;28;20436;-69
2022/04/21 09:20:21;;;;;;;2.70;2.50;;;14.00;99.90;;;;;;5091666;28;20370;-67
2022/04/21 09:22:53;;;;;;;2.90;2.70;;;13.80;99.90;;;;;;5092589;28;20398;-67
2022/04/21 09:25:24;;;;;;;3.10;2.90;;;13.70;99.90;;;;;;5092993;28;20396;-64
2022/04/21 09:27:50;;;;;;;3.10;2.50;;;13.70;99.90;;;;;;5093243;28;20505;-66
2022/04/21 09:30:17;;;;;;;2.60;2.37;;;13.90;99.90;;;;;;5092067;28;20415;-65
2022/04/21 09:32:53;;;;;;;2.20;2.00;;;14.10;99.90;;;;;;5092858;28;20419;-67
2022/04/21 09:35:20;;;;;;;2.07;1.97;;;14.40;99.90;;;;;;5091660;28;20491;-67
2022/04/21 09:37:53;;;;;;;2.70;2.10;;;14.70;99.90;;;;;;5092416;28;20510;-68
2022/04/21 09:40:21;;;;;;;6.40;2.30;;;14.90;99.90;;;;;;5091807;28;20387;-67
2022/04/21 09:43:02;;;;;;;2.17;2.00;;;15.00;99.90;;;;;;5092748;28;20917;-65
2022/04/21 09:48:29;;;;;;;2.73;2.53;;;15.40;99.90;;;;;;5093147;28;20443;-71
2022/04/21 09:51:07;;;;;;;2.80;2.60;;;15.40;99.90;;;;;;5092748;28;20496;-67
2022/04/21 09:53:58;;;;;;;5.03;2.23;;;15.60;99.90;;;;;;5092498;28;20427;-65
2022/04/21 09:56:39;;;;;;;2.93;2.73;;;15.80;99.90;;;;;;5092782;28;20415;-67
2022/04/21 09:59:08;;;;;;;2.67;2.47;;;15.90;99.90;;;;;;5091054;28;20451;-65
2022/04/21 10:01:36;;;;;;;2.87;2.67;;;15.90;99.90;;;;;;5092643;28;20398;-66
2022/04/21 10:04:06;;;;;;;3.10;2.90;;;15.80;99.90;;;;;;5092506;28;20399;-65
2022/04/21 10:06:32;;;;;;;2.40;2.20;;;15.30;99.90;;;;;;5092848;28;20422;-66
2022/04/21 10:08:58;;;;;;;7.07;2.50;;;15.40;99.90;;;;;;5091492;28;20403;-66
2022/04/21 10:11:27;;;;;;;2.67;2.47;;;15.80;99.90;;;;;;5091412;28;20404;-65
2022/04/21 10:13:54;;;;;;;5.17;2.90;;;15.90;99.90;;;;;;5092406;28;20442;-67
2022/04/21 10:16:24;;;;;;;2.80;2.37;;;16.30;99.90;;;;;;5091103;28;20526;-67
2022/04/21 10:18:54;;;;;;;2.40;2.20;;;16.50;99.90;;;;;;5090981;28;20538;-68
2022/04/21 10:21:26;;;;;;;2.83;2.20;;;16.60;99.90;;;;;;5092832;28;20735;-66
2022/04/21 10:23:52;;;;;;;1.90;1.80;;;16.40;99.90;;;;;;5095158;28;20428;-68
2022/04/21 10:26:34;;;;;;;3.07;2.80;;;15.90;99.90;;;;;;5096736;28;20401;-67
2022/04/21 10:29:10;;;;;;;3.00;2.80;;;15.60;99.90;;;;;;5095808;28;20502;-63
2022/04/21 10:31:43;;;;;;;3.10;2.80;;;15.70;99.90;;;;;;5096476;28;20912;-68
2022/04/21 10:34:09;;;;;;;2.87;2.67;;;15.70;99.90;;;;;;5096378;28;20490;-62
2022/04/21 10:36:41;;;;;;;2.30;2.20;;;16.00;99.90;;;;;;5096487;28;20450;-61
2022/04/21 10:39:25;;;;;;;2.73;2.53;;;16.20;99.90;;;;;;5094847;28;20197;-61
2022/04/21 10:42:18;;;;;;;2.83;2.40;;;16.60;99.90;;;;;;5096251;28;20506;-67
2022/04/21 10:44:51;;;;;;;3.50;2.60;;;16.40;99.90;;;;;;5092796;28;20416;-67
2022/04/21 10:47:26;;;;;;;3.50;3.20;;;16.50;99.60;;;;;;5096451;28;20411;-63
2022/04/21 10:50:16;;;;;;;2.43;2.23;;;16.30;99.90;;;;;;5095236;28;20374;-64
2022/04/21 10:58:35;;;;;;;3.53;3.23;;;17.00;99.30;;;;;;5095250;28;20450;-62
2022/04/21 11:01:07;;;;;;;3.23;2.93;;;17.70;99.90;;;;;;5095439;28;20758;-61
2022/04/21 11:03:33;;;;;;;3.07;2.77;;;18.30;99.90;;;;;;5095980;28;20424;-65
2022/04/21 11:06:15;;;;;;;4.70;3.43;;;18.70;99.90;;;;;;5095766;28;20416;-63
2022/04/21 11:08:42;;;;;;;4.30;3.90;;;19.10;99.90;;;;;;5095075;28;20184;-61
2022/04/21 11:11:08;;;;;;;3.80;3.50;;;19.20;99.90;;;;;;5094601;28;20824;-63
2022/04/21 11:13:51;;;;;;;6.00;4.70;;;19.10;95.40;;;;;;5094444;28;20442;-67
2022/04/21 11:16:41;;;;;;;5.63;4.43;;;18.30;95.10;;;;;;5095601;28;20412;-66
2022/04/21 11:19:28;;;;;;;4.77;4.10;;;17.90;94.90;;;;;;5094015;28;20972;-62
2022/04/21 11:21:55;;;;;;;6.43;4.37;;;18.10;97.70;;;;;;5095597;28;20419;-65
2022/04/21 11:24:21;;;;;;;4.60;4.07;;;18.10;95.10;;;;;;5095507;28;20403;-67
2022/04/21 11:26:55;;;;;;;6.70;5.90;;;18.10;95.00;;;;;;5095523;28;20399;-68
2022/04/21 11:29:21;;;;;;;5.10;4.60;;;17.70;94.80;;;;;;5094679;28;20395;-67
2022/04/21 11:31:47;;;;;;;5.30;4.80;;;18.10;96.10;;;;;;5095394;28;20423;-67
2022/04/21 11:34:21;;;;;;;5.83;4.90;;;17.90;95.00;;;;;;5094647;28;20491;-67
2022/04/21 11:36:47;;;;;;;4.23;3.90;;;18.10;95.00;;;;;;5094888;28;20169;-66
2022/04/21 11:39:14;;;;;;;6.27;5.13;;;18.70;96.40;;;;;;5092726;28;20499;-61
2022/04/21 11:41:44;;;;;;;7.23;5.53;;;18.30;95.10;;;;;;5095177;28;20193;-67
2022/04/21 11:44:11;;;;;;;8.73;5.27;;;18.20;95.00;;;;;;5095413;28;20398;-66
2022/04/21 11:46:39;;;;;;;5.57;5.07;;;18.30;95.00;;;;;;5093803;28;20937;-63
2022/04/21 11:49:05;;;;;;;5.93;4.60;;;18.10;95.00;;;;;;5094375;28;20754;-65
2022/04/21 11:51:30;;;;;;;5.50;5.00;;;18.80;95.20;;;;;;5095221;28;20403;-65
2022/04/21 11:54:06;;;;;;;6.27;4.50;;;19.70;95.60;;;;;;5094458;28;20272;-62
2022/04/21 11:56:32;;;;;;;5.00;4.60;;;18.80;95.30;;;;;;5095058;28;20609;-66
2022/04/21 11:59:07;;;;;;;8.57;4.10;;;17.70;94.80;;;;;;5093948;28;20496;-68
2022/04/21 12:07:05;;;;;;;5.27;4.80;;;16.70;94.50;;;;;;5095115;28;20469;-65
2022/04/21 12:09:34;;;;;;;5.10;4.70;;;16.90;94.60;;;;;;5093897;28;20485;-66
2022/04/21 12:12:03;;;;;;;5.90;4.00;;;17.10;94.60;;;;;;5094510;28;20415;-64
2022/04/21 12:14:29;;;;;;;6.10;3.97;;;17.50;94.80;;;;;;5094043;28;20400;-68
2022/04/21 12:17:00;;;;;;;5.20;4.70;;;17.30;94.70;;;;;;5094569;28;20400;-67
2022/04/21 12:19:39;;;;;;;5.70;4.97;;;16.30;94.30;;;;;;5093770;28;20451;-63
2022/04/21 12:22:16;;;;;;;5.70;5.10;;;15.50;94.10;;;;;;5094435;28;20519;-63
2022/04/21 12:24:43;;;;;;;5.77;5.10;;;15.20;94.00;;;;;;5094360;28;20845;-66
2022/04/21 12:27:23;;;;;;;7.07;5.87;;;15.00;93.90;;;;;;5094395;28;20407;-66
2022/04/21 12:29:51;;;;;;;6.77;6.07;;;15.20;93.90;;;;;;5092850;28;20431;-67
2022/04/21 12:32:19;;;;;;;5.47;4.90;;;15.50;95.90;;;;;;5094215;28;20502;-63
2022/04/21 12:34:45;;;;;;;5.23;4.57;;;15.70;95.70;;;;;;5094158;28;20400;-69
2022/04/21 12:37:11;;;;;;;4.83;4.47;;;15.70;96.40;;;;;;5094463;28;20426;-67
2022/04/21 12:39:37;;;;;;;6.33;4.50;;;15.50;97.40;;;;;;5091902;28;20265;-63
2022/04/21 12:42:03;;;;;;;7.53;4.60;;;15.90;99.90;;;;;;5094160;28;20178;-63
2022/04/21 12:44:29;;;;;;;6.80;4.97;;;16.40;99.90;;;;;;5094119;28;20743;-63
2022/04/21 12:47:05;;;;;;;5.70;5.13;;;16.60;99.90;;;;;;5093776;28;20439;-63
2022/04/21 12:49:59;;;;;;;5.00;4.50;;;16.80;99.90;;;;;;5092497;28;20391;-65
2022/04/21 12:52:33;;;;;;;10.47;4.77;;;16.80;99.90;;;;;;5094004;28;20420;-67
2022/04/21 12:55:00;;;;;;;5.13;4.73;;;16.90;99.90;;;;;;5094008;28;20473;-66
2022/04/21 12:57:27;;;;;;;7.20;5.30;;;16.60;99.70;;;;;;5093959;28;20447;-61
2022/04/21 12:59:56;;;;;;;6.60;5.50;;;17.00;99.90;;;;;;5093161;28;20400;-60
2022/04/21 13:02:22;;;;;;;10.67;5.17;;;17.40;99.90;;;;;;5092452;28;20424;-64
2022/04/21 13:04:48;;;;;;;5.97;4.70;;;17.90;99.70;;;;;;5092401;28;20423;-64
2022/04/21 13:07:14;;;;;;;4.57;3.90;;;18.40;99.90;;;;;;5093052;28;20411;-63
2022/04/21 13:09:39;;;;;;;6.03;4.53;;;18.90;99.90;;;;;;5091645;28;20418;-65
2022/04/21 13:12:06;;;;;;;7.13;5.20;;;19.30;99.90;;;;;;5093617;28;20190;-66
2022/04/21 13:14:32;;;;;;;8.13;4.93;;;19.40;99.90;;;;;;5093585;28;20625;-60
2022/04/21 13:16:58;;;;;;;5.83;5.00;;;19.20;95.40;;;;;;5092540;28;20396;-66
2022/04/21 13:19:24;;;;;;;6.80;5.27;;;18.90;96.80;;;;;;5092537;28;20193;-65
2022/04/21 13:21:52;;;;;;;6.50;5.37;;;18.70;97.40;;;;;;5093507;28;20435;-61
2022/04/21 13:24:19;;;;;;;5.67;5.07;;;18.40;95.10;;;;;;5092819;28;20624;-61
2022/04/21 13:26:45;;;;;;;9.20;5.83;;;17.70;97.20;;;;;;5093446;28;20402;-63
2022/04/21 13:29:10;;;;;;;6.63;4.90;;;17.10;97.40;;;;;;5092334;28;20486;-67
2022/04/21 13:34:20;;;;;;;5.93;5.40;;;17.10;99.90;;;;;;5093279;28;20219;-61
2022/04/21 13:36:46;;;;;;;8.77;5.77;;;17.60;99.90;;;;;;5093256;28;20407;-66
2022/04/21 13:39:12;;;;;;;8.80;5.30;;;17.50;99.90;;;;;;5092271;28;20196;-62
2022/04/21 13:41:38;;;;;;;5.50;4.90;;;17.60;99.90;;;;;;5092808;28;20192;-63
2022/04/21 13:44:04;;;;;;;5.57;5.03;;;17.40;99.90;;;;;;5092727;28;20165;-63
2022/04/21 13:46:29;;;;;;;6.67;4.13;;;18.20;99.90;;;;;;5093130;28;20396;-65
2022/04/21 13:48:56;;;;;;;12.17;3.50;;;18.40;99.90;;;;;;5092243;28;20479;-61
2022/04/21 13:51:24;;;;;;;4.87;3.50;;;18.90;98.10;;;;;;5092994;28;20162;-65
2022/04/21 13:53:50;;;;;;;3.00;2.80;;;19.20;95.40;;;;;;5093323;28;20762;-65
2022/04/21 13:56:15;;;;;;;5.07;3.00;;;19.40;95.50;;;;;;5093152;28;20388;-65